sensor_id;sensor_type;location;lat;lon;timestamp;temperature;humidity
32217;DHT22;67098;51.140;4.088;2024-03-23T00:53:28;11.50;98.20
32217;DHT22;67098;51.140;4.088;2024-03-23T00:55:54;11.50;98.20
32217;DHT22;67098;51.140;4.088;2024-03-23T00:58:20;11.40;98.20
32217;DHT22;67098;51.140;4.088;2024-03-23T01:00:45;11.40;98.10
32217;DHT22;67098;51.140;4.088;2024-03-23T01:03:11;11.30;98.00
32217;DHT22;67098;51.140;4.088;2024-03-23T01:05:37;11.20;98.00
32217;DHT22;67098;51.140;4.088;2024-03-23T01:08:03;11.20;98.00
32217;DHT22;67098;51.140;4.088;2024-03-23T01:10:29;11.10;97.90
32217;DHT22;67098;51.140;4.088;2024-03-23T01:12:54;11.10;97.80
32217;DHT22;67098;51.140;4.088;2024-03-23T01:15:20;11.10;97.90
32217;DHT22;67098;51.140;4.088;2024-03-23T01:17:46;11.10;97.90
32217;DHT22;67098;51.140;4.088;2024-03-23T01:20:12;11.00;97.80
32217;DHT22;67098;51.140;4.088;2024-03-23T01:22:37;11.00;97.90
32217;DHT22;67098;51.140;4.088;2024-03-23T01:25:03;10.90;97.80
32217;DHT22;67098;51.140;4.088;2024-03-23T01:27:29;10.90;97.90
32217;DHT22;67098;51.140;4.088;2024-03-23T01:29:55;10.90;97.80
32217;DHT22;67098;51.140;4.088;2024-03-23T01:32:21;10.90;98.20
32217;DHT22;67098;51.140;4.088;2024-03-23T01:34:47;11.00;98.10
32217;DHT22;67098;51.140;4.088;2024-03-23T01:37:12;11.00;98.20
32217;DHT22;67098;51.140;4.088;2024-03-23T01:39:38;10.90;98.50
32217;DHT22;67098;51.140;4.088;2024-03-23T01:42:04;10.90;98.50
32217;DHT22;67098;51.140;4.088;2024-03-23T01:44:30;10.90;98.40
32217;DHT22;67098;51.140;4.088;2024-03-23T01:46:56;10.90;98.50
32217;DHT22;67098;51.140;4.088;2024-03-23T01:49:21;11.00;98.40
32217;DHT22;67098;51.140;4.088;2024-03-23T01:51:47;11.00;98.30
32217;DHT22;67098;51.140;4.088;2024-03-23T01:54:13;11.00;98.10
32217;DHT22;67098;51.140;4.088;2024-03-23T01:56:39;11.00;97.90
32217;DHT22;67098;51.140;4.088;2024-03-23T01:59:08;10.90;97.90
32217;DHT22;67098;51.140;4.088;2024-03-23T02:01:36;10.80;97.80
32217;DHT22;67098;51.140;4.088;2024-03-23T02:04:02;10.90;97.60
32217;DHT22;67098;51.140;4.088;2024-03-23T02:06:28;10.90;97.60
32217;DHT22;67098;51.140;4.088;2024-03-23T02:08:54;10.80;97.40
32217;DHT22;67098;51.140;4.088;2024-03-23T02:11:20;10.70;97.20
32217;DHT22;67098;51.140;4.088;2024-03-23T02:13:47;10.70;97.30
32217;DHT22;67098;51.140;4.088;2024-03-23T02:16:13;10.60;97.10
32217;DHT22;67098;51.140;4.088;2024-03-23T02:18:41;10.60;97.00
32217;DHT22;67098;51.140;4.088;2024-03-23T02:21:07;10.60;96.80
32217;DHT22;67098;51.140;4.088;2024-03-23T02:23:33;10.60;96.90
32217;DHT22;67098;51.140;4.088;2024-03-23T02:25:58;10.50;96.90
32217;DHT22;67098;51.140;4.088;2024-03-23T02:28:24;10.50;96.90
32217;DHT22;67098;51.140;4.088;2024-03-23T02:30:50;10.40;96.80
32217;DHT22;67098;51.140;4.088;2024-03-23T02:33:16;10.50;96.80
32217;DHT22;67098;51.140;4.088;2024-03-23T02:35:42;10.50;96.70
32217;DHT22;67098;51.140;4.088;2024-03-23T02:38:08;10.40;96.70
32217;DHT22;67098;51.140;4.088;2024-03-23T02:40:33;10.40;96.80
32217;DHT22;67098;51.140;4.088;2024-03-23T02:42:59;10.30;96.90
32217;DHT22;67098;51.140;4.088;2024-03-23T02:45:25;10.30;97.00
32217;DHT22;67098;51.140;4.088;2024-03-23T02:47:50;10.30;97.00
32217;DHT22;67098;51.140;4.088;2024-03-23T02:50:19;10.40;97.10
32217;DHT22;67098;51.140;4.088;2024-03-23T02:52:46;10.40;97.10
32217;DHT22;67098;51.140;4.088;2024-03-23T02:55:12;10.40;97.20
32217;DHT22;67098;51.140;4.088;2024-03-23T02:57:38;10.40;97.20
32217;DHT22;67098;51.140;4.088;2024-03-23T03:00:04;10.40;97.20
32217;DHT22;67098;51.140;4.088;2024-03-23T03:02:32;10.40;97.30
32217;DHT22;67098;51.140;4.088;2024-03-23T03:04:57;10.40;97.10
32217;DHT22;67098;51.140;4.088;2024-03-23T03:07:23;10.40;97.10
32217;DHT22;67098;51.140;4.088;2024-03-23T03:09:49;10.30;97.00
32217;DHT22;67098;51.140;4.088;2024-03-23T03:12:15;10.30;96.90
32217;DHT22;67098;51.140;4.088;2024-03-23T03:14:41;10.30;96.80
32217;DHT22;67098;51.140;4.088;2024-03-23T03:17:06;10.10;96.90
32217;DHT22;67098;51.140;4.088;2024-03-23T03:19:32;10.10;96.90
32217;DHT22;67098;51.140;4.088;2024-03-23T03:21:58;10.00;96.80
32217;DHT22;67098;51.140;4.088;2024-03-23T03:24:24;10.00;96.70
32217;DHT22;67098;51.140;4.088;2024-03-23T03:26:49;10.00;96.70
32217;DHT22;67098;51.140;4.088;2024-03-23T03:29:16;10.00;96.80
32217;DHT22;67098;51.140;4.088;2024-03-23T03:31:42;9.90;96.80
32217;DHT22;67098;51.140;4.088;2024-03-23T03:34:08;9.90;96.90
32217;DHT22;67098;51.140;4.088;2024-03-23T03:36:34;9.80;96.90
32217;DHT22;67098;51.140;4.088;2024-03-23T03:39:00;9.80;97.00
32217;DHT22;67098;51.140;4.088;2024-03-23T03:41:26;9.80;97.00
32217;DHT22;67098;51.140;4.088;2024-03-23T03:43:51;9.80;97.00
32217;DHT22;67098;51.140;4.088;2024-03-23T03:46:17;9.80;97.10
32217;DHT22;67098;51.140;4.088;2024-03-23T03:48:43;9.80;97.20
32217;DHT22;67098;51.140;4.088;2024-03-23T03:51:10;9.90;97.30
32217;DHT22;67098;51.140;4.088;2024-03-23T03:53:36;9.90;97.40
32217;DHT22;67098;51.140;4.088;2024-03-23T03:56:02;9.90;97.40
32217;DHT22;67098;51.140;4.088;2024-03-23T03:58:28;9.90;97.40
32217;DHT22;67098;51.140;4.088;2024-03-23T04:00:54;9.90;97.50
32217;DHT22;67098;51.140;4.088;2024-03-23T04:03:20;9.90;97.40
32217;DHT22;67098;51.140;4.088;2024-03-23T04:05:55;9.90;97.50
32217;DHT22;67098;51.140;4.088;2024-03-23T04:08:21;9.80;97.50
32217;DHT22;67098;51.140;4.088;2024-03-23T04:10:47;9.90;97.30
32217;DHT22;67098;51.140;4.088;2024-03-23T04:13:13;9.90;97.20
32217;DHT22;67098;51.140;4.088;2024-03-23T04:15:39;9.80;97.10
32217;DHT22;67098;51.140;4.088;2024-03-23T04:18:05;9.90;96.90
32217;DHT22;67098;51.140;4.088;2024-03-23T04:20:31;9.80;96.80
32217;DHT22;67098;51.140;4.088;2024-03-23T04:22:58;9.80;96.70
32217;DHT22;67098;51.140;4.088;2024-03-23T04:25:24;9.90;96.60
32217;DHT22;67098;51.140;4.088;2024-03-23T04:27:50;9.90;96.40
32217;DHT22;67098;51.140;4.088;2024-03-23T04:30:15;9.80;96.40
32217;DHT22;67098;51.140;4.088;2024-03-23T04:32:41;9.90;96.40
32217;DHT22;67098;51.140;4.088;2024-03-23T04:35:08;9.70;96.60
32217;DHT22;67098;51.140;4.088;2024-03-23T04:37:37;9.80;96.40
32217;DHT22;67098;51.140;4.088;2024-03-23T04:40:04;9.80;96.30
32217;DHT22;67098;51.140;4.088;2024-03-23T04:42:32;9.70;95.90
32217;DHT22;67098;51.140;4.088;2024-03-23T04:44:57;9.60;96.00
32217;DHT22;67098;51.140;4.088;2024-03-23T04:47:23;9.60;96.00
32217;DHT22;67098;51.140;4.088;2024-03-23T04:49:49;9.50;96.10
32217;DHT22;67098;51.140;4.088;2024-03-23T04:52:15;9.50;96.00
32217;DHT22;67098;51.140;4.088;2024-03-23T04:54:41;9.50;96.10
32217;DHT22;67098;51.140;4.088;2024-03-23T04:57:07;9.40;96.20
32217;DHT22;67098;51.140;4.088;2024-03-23T04:59:33;9.40;96.00
32217;DHT22;67098;51.140;4.088;2024-03-23T05:01:59;9.40;96.00
32217;DHT22;67098;51.140;4.088;2024-03-23T05:04:25;9.40;96.20
32217;DHT22;67098;51.140;4.088;2024-03-23T05:06:51;9.50;96.20
32217;DHT22;67098;51.140;4.088;2024-03-23T05:09:17;9.40;96.20
32217;DHT22;67098;51.140;4.088;2024-03-23T05:11:43;9.50;96.30
32217;DHT22;67098;51.140;4.088;2024-03-23T05:14:09;9.40;96.40
32217;DHT22;67098;51.140;4.088;2024-03-23T05:16:34;9.50;96.30
32217;DHT22;67098;51.140;4.088;2024-03-23T05:19:00;9.50;96.50
32217;DHT22;67098;51.140;4.088;2024-03-23T05:21:27;9.50;96.60
32217;DHT22;67098;51.140;4.088;2024-03-23T05:23:54;9.40;96.80
32217;DHT22;67098;51.140;4.088;2024-03-23T05:26:21;9.50;96.80
32217;DHT22;67098;51.140;4.088;2024-03-23T05:28:47;9.40;96.90
32217;DHT22;67098;51.140;4.088;2024-03-23T05:31:22;9.40;97.20
32217;DHT22;67098;51.140;4.088;2024-03-23T05:33:47;9.40;97.10
32217;DHT22;67098;51.140;4.088;2024-03-23T05:36:13;9.40;97.00
32217;DHT22;67098;51.140;4.088;2024-03-23T05:38:39;9.50;97.10
32217;DHT22;67098;51.140;4.088;2024-03-23T05:41:05;9.40;97.00
32217;DHT22;67098;51.140;4.088;2024-03-23T05:43:31;9.30;97.10
32217;DHT22;67098;51.140;4.088;2024-03-23T05:45:57;9.40;97.00
32217;DHT22;67098;51.140;4.088;2024-03-23T05:48:24;9.40;97.00
32217;DHT22;67098;51.140;4.088;2024-03-23T05:50:50;9.30;97.10
32217;DHT22;67098;51.140;4.088;2024-03-23T05:53:17;9.40;97.30
32217;DHT22;67098;51.140;4.088;2024-03-23T05:55:43;9.50;97.10
32217;DHT22;67098;51.140;4.088;2024-03-23T05:58:09;9.40;96.90
32217;DHT22;67098;51.140;4.088;2024-03-23T06:00:35;9.30;97.10
32217;DHT22;67098;51.140;4.088;2024-03-23T06:03:02;9.40;96.90
32217;DHT22;67098;51.140;4.088;2024-03-23T06:05:27;9.40;96.90
32217;DHT22;67098;51.140;4.088;2024-03-23T06:07:53;9.40;96.80
32217;DHT22;67098;51.140;4.088;2024-03-23T06:10:19;9.40;96.70
32217;DHT22;67098;51.140;4.088;2024-03-23T06:12:47;9.30;96.70
32217;DHT22;67098;51.140;4.088;2024-03-23T06:15:14;9.40;96.80
32217;DHT22;67098;51.140;4.088;2024-03-23T06:17:40;9.40;96.70
32217;DHT22;67098;51.140;4.088;2024-03-23T06:20:06;9.50;96.60
32217;DHT22;67098;51.140;4.088;2024-03-23T06:22:33;9.50;96.40
32217;DHT22;67098;51.140;4.088;2024-03-23T06:24:59;9.40;96.60
32217;DHT22;67098;51.140;4.088;2024-03-23T06:27:25;9.40;96.70
32217;DHT22;67098;51.140;4.088;2024-03-23T06:29:51;9.50;96.60
32217;DHT22;67098;51.140;4.088;2024-03-23T06:32:17;9.50;96.50
32217;DHT22;67098;51.140;4.088;2024-03-23T06:34:43;9.50;96.40
32217;DHT22;67098;51.140;4.088;2024-03-23T06:37:09;9.50;96.50
32217;DHT22;67098;51.140;4.088;2024-03-23T06:39:38;9.50;96.70
32217;DHT22;67098;51.140;4.088;2024-03-23T06:42:04;9.60;96.60
32217;DHT22;67098;51.140;4.088;2024-03-23T06:44:30;9.50;96.90
32217;DHT22;67098;51.140;4.088;2024-03-23T06:46:57;9.70;96.50
32217;DHT22;67098;51.140;4.088;2024-03-23T06:49:23;9.80;96.50
32217;DHT22;67098;51.140;4.088;2024-03-23T06:51:49;9.90;96.60
32217;DHT22;67098;51.140;4.088;2024-03-23T06:54:17;10.00;96.60
32217;DHT22;67098;51.140;4.088;2024-03-23T06:56:44;10.10;96.80
32217;DHT22;67098;51.140;4.088;2024-03-23T06:59:10;10.30;96.50
32217;DHT22;67098;51.140;4.088;2024-03-23T07:01:35;10.50;98.30
32217;DHT22;67098;51.140;4.088;2024-03-23T07:04:01;10.50;97.00
32217;DHT22;67098;51.140;4.088;2024-03-23T07:06:28;10.60;96.40
32217;DHT22;67098;51.140;4.088;2024-03-23T07:08:53;10.60;96.20
32217;DHT22;67098;51.140;4.088;2024-03-23T07:11:23;10.70;96.00
32217;DHT22;67098;51.140;4.088;2024-03-23T07:13:53;10.60;96.30
32217;DHT22;67098;51.140;4.088;2024-03-23T07:16:23;10.60;96.40
32217;DHT22;67098;51.140;4.088;2024-03-23T07:18:50;10.60;96.50
32217;DHT22;67098;51.140;4.088;2024-03-23T07:21:16;10.70;96.70
32217;DHT22;67098;51.140;4.088;2024-03-23T07:23:45;10.70;96.70
32217;DHT22;67098;51.140;4.088;2024-03-23T07:26:11;10.60;97.30
32217;DHT22;67098;51.140;4.088;2024-03-23T07:28:37;10.20;99.10
32217;DHT22;67098;51.140;4.088;2024-03-23T07:31:13;10.10;98.50
32217;DHT22;67098;51.140;4.088;2024-03-23T07:33:47;10.30;97.70
32217;DHT22;67098;51.140;4.088;2024-03-23T07:36:13;10.40;97.70
32217;DHT22;67098;51.140;4.088;2024-03-23T07:38:42;10.30;97.70
32217;DHT22;67098;51.140;4.088;2024-03-23T07:41:11;10.30;97.60
32217;DHT22;67098;51.140;4.088;2024-03-23T07:43:38;10.30;97.50
32217;DHT22;67098;51.140;4.088;2024-03-23T07:46:04;10.50;97.40
32217;DHT22;67098;51.140;4.088;2024-03-23T07:48:30;10.70;97.20
32217;DHT22;67098;51.140;4.088;2024-03-23T07:50:58;10.80;96.80
32217;DHT22;67098;51.140;4.088;2024-03-23T07:53:24;10.80;96.40
32217;DHT22;67098;51.140;4.088;2024-03-23T07:56:00;10.80;96.60
32217;DHT22;67098;51.140;4.088;2024-03-23T07:58:26;11.00;96.50
32217;DHT22;67098;51.140;4.088;2024-03-23T08:00:56;10.80;95.90
32217;DHT22;67098;51.140;4.088;2024-03-23T08:03:22;10.90;96.20
32217;DHT22;67098;51.140;4.088;2024-03-23T08:05:48;11.00;96.10
32217;DHT22;67098;51.140;4.088;2024-03-23T08:08:14;11.20;95.80
32217;DHT22;67098;51.140;4.088;2024-03-23T08:10:50;11.30;95.60
32217;DHT22;67098;51.140;4.088;2024-03-23T08:13:15;11.40;95.10
32217;DHT22;67098;51.140;4.088;2024-03-23T08:15:41;11.50;94.80
32217;DHT22;67098;51.140;4.088;2024-03-23T08:18:07;11.50;95.00
32217;DHT22;67098;51.140;4.088;2024-03-23T08:20:33;11.50;94.50
32217;DHT22;67098;51.140;4.088;2024-03-23T08:22:59;11.30;94.80
32217;DHT22;67098;51.140;4.088;2024-03-23T08:25:25;11.40;94.60
32217;DHT22;67098;51.140;4.088;2024-03-23T08:27:50;11.70;94.50
32217;DHT22;67098;51.140;4.088;2024-03-23T08:30:16;11.80;94.00
32217;DHT22;67098;51.140;4.088;2024-03-23T08:32:42;11.90;93.90
32217;DHT22;67098;51.140;4.088;2024-03-23T08:35:08;11.80;93.90
32217;DHT22;67098;51.140;4.088;2024-03-23T08:37:35;12.00;93.90
32217;DHT22;67098;51.140;4.088;2024-03-23T08:40:00;12.10;93.30
32217;DHT22;67098;51.140;4.088;2024-03-23T08:42:26;12.00;93.00
32217;DHT22;67098;51.140;4.088;2024-03-23T08:44:52;12.20;93.20
32217;DHT22;67098;51.140;4.088;2024-03-23T08:47:17;12.30;92.90
32217;DHT22;67098;51.140;4.088;2024-03-23T08:49:44;12.50;93.00
32217;DHT22;67098;51.140;4.088;2024-03-23T08:52:10;12.60;93.00
32217;DHT22;67098;51.140;4.088;2024-03-23T08:54:36;12.50;92.70
32217;DHT22;67098;51.140;4.088;2024-03-23T08:57:01;12.50;92.70
32217;DHT22;67098;51.140;4.088;2024-03-23T08:59:27;12.30;92.50
32217;DHT22;67098;51.140;4.088;2024-03-23T09:01:53;12.10;92.40
32217;DHT22;67098;51.140;4.088;2024-03-23T09:04:19;11.70;91.50
32217;DHT22;67098;51.140;4.088;2024-03-23T09:06:45;11.60;91.80
32217;DHT22;67098;51.140;4.088;2024-03-23T09:09:11;11.40;92.80
32217;DHT22;67098;51.140;4.088;2024-03-23T09:11:36;11.30;92.80
32217;DHT22;67098;51.140;4.088;2024-03-23T09:14:03;10.80;92.80
32217;DHT22;67098;51.140;4.088;2024-03-23T09:16:29;9.90;93.60
32217;DHT22;67098;51.140;4.088;2024-03-23T09:18:55;9.40;95.10
32217;DHT22;67098;51.140;4.088;2024-03-23T09:21:20;9.20;95.70
32217;DHT22;67098;51.140;4.088;2024-03-23T09:23:46;9.00;96.10
32217;DHT22;67098;51.140;4.088;2024-03-23T09:26:12;9.00;96.60
32217;DHT22;67098;51.140;4.088;2024-03-23T09:28:38;9.10;96.30
32217;DHT22;67098;51.140;4.088;2024-03-23T09:31:05;9.00;95.80
32217;DHT22;67098;51.140;4.088;2024-03-23T09:33:31;8.90;96.60
32217;DHT22;67098;51.140;4.088;2024-03-23T09:35:57;8.90;97.40
32217;DHT22;67098;51.140;4.088;2024-03-23T09:38:23;9.10;97.20
32217;DHT22;67098;51.140;4.088;2024-03-23T09:40:53;9.00;96.80
32217;DHT22;67098;51.140;4.088;2024-03-23T09:43:19;8.70;96.30
32217;DHT22;67098;51.140;4.088;2024-03-23T09:45:46;8.40;96.00
32217;DHT22;67098;51.140;4.088;2024-03-23T09:48:12;8.50;95.90
32217;DHT22;67098;51.140;4.088;2024-03-23T09:50:43;8.70;95.40
32217;DHT22;67098;51.140;4.088;2024-03-23T09:53:11;8.70;95.30
32217;DHT22;67098;51.140;4.088;2024-03-23T09:55:38;8.70;95.60
32217;DHT22;67098;51.140;4.088;2024-03-23T09:58:05;9.30;96.50
32217;DHT22;67098;51.140;4.088;2024-03-23T10:00:32;10.30;95.70
32217;DHT22;67098;51.140;4.088;2024-03-23T10:03:01;11.00;94.50
32217;DHT22;67098;51.140;4.088;2024-03-23T10:05:28;11.20;94.00
32217;DHT22;67098;51.140;4.088;2024-03-23T10:07:56;11.50;93.90
32217;DHT22;67098;51.140;4.088;2024-03-23T10:10:25;12.20;94.30
32217;DHT22;67098;51.140;4.088;2024-03-23T10:12:51;13.00;93.40
32217;DHT22;67098;51.140;4.088;2024-03-23T10:15:24;13.70;91.20
32217;DHT22;67098;51.140;4.088;2024-03-23T10:17:51;13.90;90.90
32217;DHT22;67098;51.140;4.088;2024-03-23T10:20:21;13.70;90.50
32217;DHT22;67098;51.140;4.088;2024-03-23T10:22:51;13.60;90.40
32217;DHT22;67098;51.140;4.088;2024-03-23T10:25:24;13.00;89.50
32217;DHT22;67098;51.140;4.088;2024-03-23T10:28:00;13.20;89.10
32217;DHT22;67098;51.140;4.088;2024-03-23T10:30:27;13.40;88.60
32217;DHT22;67098;51.140;4.088;2024-03-23T10:33:12;13.60;87.10
32217;DHT22;67098;51.140;4.088;2024-03-23T10:35:39;13.80;85.30
32217;DHT22;67098;51.140;4.088;2024-03-23T10:38:05;13.90;84.60
32217;DHT22;67098;51.140;4.088;2024-03-23T10:40:34;13.60;84.10
32217;DHT22;67098;51.140;4.088;2024-03-23T10:43:00;13.10;83.70
32217;DHT22;67098;51.140;4.088;2024-03-23T10:45:26;12.50;85.30
32217;DHT22;67098;51.140;4.088;2024-03-23T10:47:52;12.50;87.20
32217;DHT22;67098;51.140;4.088;2024-03-23T10:50:18;13.30;85.60
32217;DHT22;67098;51.140;4.088;2024-03-23T10:52:47;14.00;84.70
32217;DHT22;67098;51.140;4.088;2024-03-23T10:55:20;14.50;83.50
32217;DHT22;67098;51.140;4.088;2024-03-23T10:57:56;15.10;83.30
32217;DHT22;67098;51.140;4.088;2024-03-23T11:00:24;15.60;82.20
32217;DHT22;67098;51.140;4.088;2024-03-23T11:02:50;15.50;79.50
32217;DHT22;67098;51.140;4.088;2024-03-23T11:05:28;15.00;79.10
32217;DHT22;67098;51.140;4.088;2024-03-23T11:07:54;14.40;79.50
32217;DHT22;67098;51.140;4.088;2024-03-23T11:10:28;14.60;80.90
32217;DHT22;67098;51.140;4.088;2024-03-23T11:12:55;14.30;81.60
32217;DHT22;67098;51.140;4.088;2024-03-23T11:15:21;13.90;81.20
32217;DHT22;67098;51.140;4.088;2024-03-23T11:18:06;14.00;83.60
32217;DHT22;67098;51.140;4.088;2024-03-23T11:20:37;14.40;82.50
32217;DHT22;67098;51.140;4.088;2024-03-23T11:23:04;14.70;81.70
32217;DHT22;67098;51.140;4.088;2024-03-23T11:25:30;14.20;80.50
32217;DHT22;67098;51.140;4.088;2024-03-23T11:28:11;13.70;81.50
32217;DHT22;67098;51.140;4.088;2024-03-23T11:30:41;13.20;82.10
32217;DHT22;67098;51.140;4.088;2024-03-23T11:33:08;12.90;83.90
32217;DHT22;67098;51.140;4.088;2024-03-23T11:35:38;12.50;83.70
32217;DHT22;67098;51.140;4.088;2024-03-23T11:38:13;12.20;82.90
32217;DHT22;67098;51.140;4.088;2024-03-23T11:40:43;11.90;84.40
32217;DHT22;67098;51.140;4.088;2024-03-23T11:43:12;11.90;85.40
32217;DHT22;67098;51.140;4.088;2024-03-23T11:45:41;12.40;86.60
32217;DHT22;67098;51.140;4.088;2024-03-23T11:48:17;12.70;85.90
32217;DHT22;67098;51.140;4.088;2024-03-23T11:50:45;12.90;84.70
32217;DHT22;67098;51.140;4.088;2024-03-23T11:53:20;12.80;84.80
32217;DHT22;67098;51.140;4.088;2024-03-23T11:55:52;12.50;86.30
32217;DHT22;67098;51.140;4.088;2024-03-23T11:58:20;12.40;87.80
32217;DHT22;67098;51.140;4.088;2024-03-23T12:00:57;12.00;88.70
32217;DHT22;67098;51.140;4.088;2024-03-23T12:03:23;11.70;89.40
32217;DHT22;67098;51.140;4.088;2024-03-23T12:05:54;11.60;90.00
32217;DHT22;67098;51.140;4.088;2024-03-23T12:11:05;11.70;90.40
32217;DHT22;67098;51.140;4.088;2024-03-23T12:13:32;12.10;90.10
32217;DHT22;67098;51.140;4.088;2024-03-23T12:18:36;14.20;86.50
32217;DHT22;67098;51.140;4.088;2024-03-23T12:21:02;15.00;83.30
32217;DHT22;67098;51.140;4.088;2024-03-23T12:23:28;15.00;82.50
32217;DHT22;67098;51.140;4.088;2024-03-23T12:25:54;15.30;82.00
32217;DHT22;67098;51.140;4.088;2024-03-23T12:28:19;15.80;80.80
32217;DHT22;67098;51.140;4.088;2024-03-23T12:30:45;16.20;78.40
32217;DHT22;67098;51.140;4.088;2024-03-23T12:33:11;16.60;77.80
32217;DHT22;67098;51.140;4.088;2024-03-23T12:35:37;17.30;76.60
32217;DHT22;67098;51.140;4.088;2024-03-23T12:38:03;16.90;74.30
32217;DHT22;67098;51.140;4.088;2024-03-23T12:40:29;16.40;75.50
32217;DHT22;67098;51.140;4.088;2024-03-23T12:42:55;15.70;75.70
32217;DHT22;67098;51.140;4.088;2024-03-23T12:45:22;14.80;78.90
32217;DHT22;67098;51.140;4.088;2024-03-23T12:47:48;13.90;79.20
32217;DHT22;67098;51.140;4.088;2024-03-23T12:50:14;13.10;80.90
32217;DHT22;67098;51.140;4.088;2024-03-23T12:52:39;12.90;82.00
32217;DHT22;67098;51.140;4.088;2024-03-23T12:55:05;12.70;83.60
32217;DHT22;67098;51.140;4.088;2024-03-23T12:57:32;12.30;85.30
32217;DHT22;67098;51.140;4.088;2024-03-23T12:59:58;12.20;86.70
32217;DHT22;67098;51.140;4.088;2024-03-23T13:02:24;11.70;88.50
32217;DHT22;67098;51.140;4.088;2024-03-23T13:04:50;11.50;88.40
32217;DHT22;67098;51.140;4.088;2024-03-23T13:07:17;11.10;89.90
32217;DHT22;67098;51.140;4.088;2024-03-23T13:09:43;10.60;90.30
32217;DHT22;67098;51.140;4.088;2024-03-23T13:12:10;10.40;91.20
32217;DHT22;67098;51.140;4.088;2024-03-23T13:14:38;9.90;91.80
32217;DHT22;67098;51.140;4.088;2024-03-23T13:17:04;9.50;92.10
32217;DHT22;67098;51.140;4.088;2024-03-23T13:19:30;9.50;92.80
32217;DHT22;67098;51.140;4.088;2024-03-23T13:21:57;9.70;92.50
32217;DHT22;67098;51.140;4.088;2024-03-23T13:24:27;10.00;92.00
32217;DHT22;67098;51.140;4.088;2024-03-23T13:26:54;10.70;91.30
32217;DHT22;67098;51.140;4.088;2024-03-23T13:29:20;11.40;90.10
32217;DHT22;67098;51.140;4.088;2024-03-23T13:31:47;12.50;88.70
32217;DHT22;67098;51.140;4.088;2024-03-23T13:34:16;13.90;86.50
32217;DHT22;67098;51.140;4.088;2024-03-23T13:36:42;15.10;83.70
32217;DHT22;67098;51.140;4.088;2024-03-23T13:39:09;16.00;80.10
32217;DHT22;67098;51.140;4.088;2024-03-23T13:41:44;17.10;80.20
32217;DHT22;67098;51.140;4.088;2024-03-23T13:44:12;17.80;78.60
32217;DHT22;67098;51.140;4.088;2024-03-23T13:46:38;18.20;77.50
32217;DHT22;67098;51.140;4.088;2024-03-23T13:49:05;18.80;75.80
32217;DHT22;67098;51.140;4.088;2024-03-23T13:51:32;18.90;73.90
32217;DHT22;67098;51.140;4.088;2024-03-23T13:53:58;19.20;72.60
32217;DHT22;67098;51.140;4.088;2024-03-23T13:56:27;19.20;71.80
32217;DHT22;67098;51.140;4.088;2024-03-23T13:58:55;19.20;72.70
32217;DHT22;67098;51.140;4.088;2024-03-23T14:01:22;19.40;72.10
32217;DHT22;67098;51.140;4.088;2024-03-23T14:03:47;19.50;71.70
32217;DHT22;67098;51.140;4.088;2024-03-23T14:06:13;19.30;69.70
32217;DHT22;67098;51.140;4.088;2024-03-23T14:08:39;19.00;69.90
32217;DHT22;67098;51.140;4.088;2024-03-23T14:11:10;19.00;69.50
32217;DHT22;67098;51.140;4.088;2024-03-23T14:13:37;19.00;70.40
32217;DHT22;67098;51.140;4.088;2024-03-23T14:16:03;18.40;70.00
32217;DHT22;67098;51.140;4.088;2024-03-23T14:18:30;17.30;71.70
32217;DHT22;67098;51.140;4.088;2024-03-23T14:21:00;16.60;73.30
32217;DHT22;67098;51.140;4.088;2024-03-23T14:23:30;16.00;74.70
32217;DHT22;67098;51.140;4.088;2024-03-23T14:25:59;15.00;75.00
32217;DHT22;67098;51.140;4.088;2024-03-23T14:28:25;14.40;77.20
32217;DHT22;67098;51.140;4.088;2024-03-23T14:30:52;14.10;78.60
32217;DHT22;67098;51.140;4.088;2024-03-23T14:33:18;13.90;80.10
32217;DHT22;67098;51.140;4.088;2024-03-23T14:35:53;14.40;80.00
32217;DHT22;67098;51.140;4.088;2024-03-23T14:38:20;14.40;77.00
32217;DHT22;67098;51.140;4.088;2024-03-23T14:40:49;14.10;75.40
32217;DHT22;67098;51.140;4.088;2024-03-23T14:43:15;13.70;75.80
32217;DHT22;67098;51.140;4.088;2024-03-23T14:46:06;13.30;76.60
32217;DHT22;67098;51.140;4.088;2024-03-23T14:48:32;13.20;77.00
32217;DHT22;67098;51.140;4.088;2024-03-23T14:50:59;13.10;78.10
32217;DHT22;67098;51.140;4.088;2024-03-23T14:53:26;12.60;76.30
32217;DHT22;67098;51.140;4.088;2024-03-23T14:55:59;12.50;77.20
32217;DHT22;67098;51.140;4.088;2024-03-23T14:58:26;12.40;78.20
32217;DHT22;67098;51.140;4.088;2024-03-23T15:00:52;12.40;78.00
32217;DHT22;67098;51.140;4.088;2024-03-23T15:03:18;12.40;79.10
32217;DHT22;67098;51.140;4.088;2024-03-23T15:08:20;12.10;78.80
32217;DHT22;67098;51.140;4.088;2024-03-23T15:10:46;11.80;78.70
32217;DHT22;67098;51.140;4.088;2024-03-23T15:13:12;11.90;79.70
32217;DHT22;67098;51.140;4.088;2024-03-23T15:15:42;12.00;78.80
32217;DHT22;67098;51.140;4.088;2024-03-23T15:18:13;12.80;79.10
32217;DHT22;67098;51.140;4.088;2024-03-23T15:20:56;13.40;77.90
32217;DHT22;67098;51.140;4.088;2024-03-23T15:23:22;14.00;76.80
32217;DHT22;67098;51.140;4.088;2024-03-23T15:25:59;14.40;75.30
32217;DHT22;67098;51.140;4.088;2024-03-23T15:28:24;14.90;75.00
32217;DHT22;67098;51.140;4.088;2024-03-23T15:31:09;15.20;74.90
32217;DHT22;67098;51.140;4.088;2024-03-23T15:33:36;15.50;73.50
32217;DHT22;67098;51.140;4.088;2024-03-23T15:36:05;15.70;73.00
32217;DHT22;67098;51.140;4.088;2024-03-23T15:38:32;15.60;72.20
32217;DHT22;67098;51.140;4.088;2024-03-23T15:40:58;15.60;72.70
32217;DHT22;67098;51.140;4.088;2024-03-23T15:43:24;15.40;72.80
32217;DHT22;67098;51.140;4.088;2024-03-23T15:45:57;15.10;73.20
32217;DHT22;67098;51.140;4.088;2024-03-23T15:48:25;15.20;73.40
32217;DHT22;67098;51.140;4.088;2024-03-23T15:50:58;14.90;73.20
32217;DHT22;67098;51.140;4.088;2024-03-23T15:53:25;14.10;73.60
32217;DHT22;67098;51.140;4.088;2024-03-23T15:55:55;13.70;75.10
32217;DHT22;67098;51.140;4.088;2024-03-23T15:58:21;13.50;76.00
32217;DHT22;67098;51.140;4.088;2024-03-23T16:00:58;13.40;76.00
32217;DHT22;67098;51.140;4.088;2024-03-23T16:03:24;13.30;76.80
32217;DHT22;67098;51.140;4.088;2024-03-23T16:06:00;13.30;77.40
32217;DHT22;67098;51.140;4.088;2024-03-23T16:08:26;13.60;78.20
32217;DHT22;67098;51.140;4.088;2024-03-23T16:10:53;13.70;77.70
32217;DHT22;67098;51.140;4.088;2024-03-23T16:13:20;13.70;77.50
32217;DHT22;67098;51.140;4.088;2024-03-23T16:15:57;13.30;78.40
32217;DHT22;67098;51.140;4.088;2024-03-23T16:18:23;12.90;78.00
32217;DHT22;67098;51.140;4.088;2024-03-23T16:20:56;12.60;79.60
32217;DHT22;67098;51.140;4.088;2024-03-23T16:23:23;12.30;80.40
32217;DHT22;67098;51.140;4.088;2024-03-23T16:25:50;12.00;81.40
32217;DHT22;67098;51.140;4.088;2024-03-23T16:28:25;11.90;81.70
32217;DHT22;67098;51.140;4.088;2024-03-23T16:31:06;11.80;82.10
32217;DHT22;67098;51.140;4.088;2024-03-23T16:33:33;12.00;82.20
32217;DHT22;67098;51.140;4.088;2024-03-23T16:36:02;12.20;82.00